createdAt,value
2019-02-09T00:00:38.330Z,20.80
2019-02-09T00:01:38.448Z,21.90
2019-02-09T00:02:38.352Z,23.90
2019-02-09T00:03:38.466Z,23.70
2019-02-09T00:04:38.389Z,23.40
2019-02-09T00:05:38.403Z,21.80
2019-02-09T00:06:38.416Z,19.40
2019-02-09T00:07:38.431Z,16.10
2019-02-09T00:08:38.616Z,17.10
2019-02-09T00:09:38.571Z,17.50
2019-02-09T00:10:38.468Z,16.60
2019-02-09T00:11:38.489Z,16.90
2019-02-09T00:12:38.529Z,16.70
2019-02-09T00:13:38.506Z,17.70
2019-02-09T00:14:38.761Z,18.20
2019-02-09T00:15:38.670Z,18.50
2019-02-09T00:16:38.700Z,18.60
2019-02-09T00:17:38.593Z,19.30
2019-02-09T00:18:38.729Z,20.10
2019-02-09T00:19:38.790Z,17.50
2019-02-09T00:20:38.744Z,18.50
2019-02-09T00:21:38.758Z,19.20
2019-02-09T00:22:38.767Z,19.40
2019-02-09T00:23:38.695Z,19.00
2019-02-09T00:24:38.817Z,18.40
2019-02-09T00:25:38.760Z,18.20
2019-02-09T00:26:38.839Z,20.00
2019-02-09T00:27:38.902Z,20.40
2019-02-09T00:28:38.879Z,20.30
2019-02-09T00:29:46.094Z,20.30
2019-02-09T00:30:38.902Z,22.40
2019-02-09T00:31:38.802Z,22.10
2019-02-09T00:32:39.041Z,24.40
2019-02-09T00:33:38.825Z,25.60
2019-02-09T00:34:38.856Z,25.40
2019-02-09T00:35:38.981Z,25.30
2019-02-09T00:36:38.883Z,25.60
2019-02-09T00:37:38.985Z,24.90
2019-02-09T00:38:38.913Z,24.20
2019-02-09T00:39:38.922Z,23.80
2019-02-09T00:40:39.054Z,23.70
2019-02-09T00:41:38.960Z,25.00
2019-02-09T00:42:39.236Z,23.40
2019-02-09T00:43:38.982Z,24.30
2019-02-09T00:44:39.043Z,24.60
2019-02-09T00:45:39.024Z,24.60
2019-02-09T00:46:39.031Z,25.30
2019-02-09T00:47:39.133Z,25.10
2019-02-09T00:48:39.081Z,26.20
2019-02-09T00:49:39.192Z,27.20
2019-02-09T00:50:39.207Z,26.70
2019-02-09T00:51:39.122Z,27.60
2019-02-09T00:52:39.199Z,28.60
2019-02-09T00:53:39.251Z,28.90
2019-02-09T00:54:39.270Z,28.40
2019-02-09T00:55:39.185Z,28.20
2019-02-09T00:56:39.312Z,28.10
2019-02-09T00:57:39.475Z,27.10
2019-02-09T00:58:39.221Z,28.00
2019-02-09T00:59:39.231Z,29.60
2019-02-09T01:00:39.366Z,30.70
2019-02-09T01:01:39.381Z,29.80
2019-02-09T01:02:39.383Z,31.10
2019-02-09T01:03:39.292Z,32.00
2019-02-09T01:04:39.317Z,32.80
2019-02-09T01:05:39.330Z,31.00
2019-02-09T01:06:39.458Z,31.20
2019-02-09T01:07:39.446Z,31.70
2019-02-09T01:08:39.487Z,33.80
2019-02-09T01:09:39.509Z,33.60
2019-02-09T01:10:39.403Z,34.00
2019-02-09T01:11:39.418Z,36.90
2019-02-09T01:12:39.487Z,37.80
2019-02-09T01:13:39.463Z,38.00
2019-02-09T01:14:39.582Z,37.30
2019-02-09T01:15:39.477Z,37.30
2019-02-09T01:16:39.608Z,37.70
2019-02-09T01:17:39.658Z,39.40
2019-02-09T01:18:39.530Z,40.20
2019-02-09T01:19:39.541Z,41.20
2019-02-09T01:21:39.686Z,43.10
2019-02-09T01:22:39.801Z,43.80
2019-02-09T01:23:39.711Z,44.90
2019-02-09T01:24:39.724Z,45.00
2019-02-09T01:25:39.740Z,45.10
2019-02-09T01:26:39.757Z,46.60
2019-02-09T01:27:39.783Z,45.90
2019-02-09T01:28:39.798Z,45.70
2019-02-09T01:29:39.696Z,45.50
2019-02-09T01:30:39.715Z,44.20
2019-02-09T01:31:39.833Z,45.90
2019-02-09T01:32:39.786Z,42.80
2019-02-09T01:33:39.860Z,48.50
2019-02-09T01:34:39.761Z,46.90
2019-02-09T01:35:39.784Z,47.40
2019-02-09T01:36:39.919Z,48.30
2019-02-09T01:37:39.909Z,49.30
2019-02-09T01:38:39.825Z,52.30
2019-02-09T01:39:39.846Z,50.50
2019-02-09T01:40:39.866Z,51.90
2019-02-09T01:41:39.877Z,50.90
2019-02-09T01:42:40.108Z,50.60
2019-02-09T01:43:40.019Z,51.00
2019-02-09T01:44:40.029Z,51.70
2019-02-09T01:45:39.924Z,53.70
2019-02-09T01:46:40.061Z,56.20
2019-02-09T01:47:40.112Z,57.40
2019-02-09T01:48:39.970Z,55.40
2019-02-09T01:49:39.973Z,57.00
2019-02-09T01:50:40.129Z,55.80
2019-02-09T01:51:40.046Z,57.40
2019-02-09T01:52:40.120Z,54.60
2019-02-09T01:53:40.053Z,56.20
2019-02-09T01:54:40.087Z,53.90
2019-02-09T01:55:40.194Z,53.80
2019-02-09T01:56:40.108Z,53.20
2019-02-09T01:57:40.377Z,51.50
2019-02-09T01:58:40.154Z,48.90
2019-02-09T01:59:40.173Z,44.80
2019-02-09T02:00:40.160Z,46.90
2019-02-09T02:01:40.178Z,45.20
2019-02-09T02:02:40.198Z,45.00
2019-02-09T02:03:40.241Z,43.70
2019-02-09T02:04:40.332Z,42.40
2019-02-09T02:05:40.344Z,42.40
2019-02-09T02:06:40.361Z,38.90
2019-02-09T02:07:40.320Z,41.00
2019-02-09T02:08:40.292Z,41.10
2019-02-09T02:09:40.348Z,39.10
2019-02-09T02:10:40.350Z,37.60
2019-02-09T02:11:40.366Z,34.30
2019-02-09T02:12:40.330Z,35.00
2019-02-09T02:13:40.471Z,32.30
2019-02-09T02:14:40.486Z,33.90
2019-02-09T02:15:40.395Z,32.40
2019-02-09T02:16:40.440Z,30.50
2019-02-09T02:17:40.415Z,30.60
2019-02-09T02:18:40.431Z,31.20
2019-02-09T02:19:40.463Z,29.30
2019-02-09T02:20:40.437Z,29.00
2019-02-09T02:21:40.736Z,28.40
2019-02-09T02:22:40.488Z,28.50
2019-02-09T02:23:40.517Z,26.90
2019-02-09T02:24:40.538Z,27.30
2019-02-09T02:25:40.597Z,26.30
2019-02-09T02:26:40.634Z,26.10
2019-02-09T02:27:40.570Z,27.00
2019-02-09T02:28:40.579Z,26.00
2019-02-09T02:29:40.588Z,25.40
2019-02-09T02:30:40.628Z,26.20
2019-02-09T02:31:40.838Z,25.90
2019-02-09T02:32:40.655Z,25.90
2019-02-09T02:33:40.652Z,26.70
2019-02-09T02:34:40.668Z,27.10
2019-02-09T02:35:40.677Z,27.80
2019-02-09T02:36:40.860Z,28.30
2019-02-09T02:37:40.705Z,31.10
2019-02-09T02:38:40.853Z,30.90
2019-02-09T02:39:40.758Z,31.20
2019-02-09T02:40:40.774Z,33.00
2019-02-09T02:41:40.852Z,32.40
2019-02-09T02:42:40.795Z,34.20
2019-02-09T02:43:40.822Z,33.70
2019-02-09T02:44:40.809Z,36.30
2019-02-09T02:45:40.946Z,35.40
2019-02-09T02:46:40.956Z,37.80
2019-02-09T02:47:40.871Z,37.90
2019-02-09T02:48:40.884Z,38.00
2019-02-09T02:49:40.882Z,39.10
2019-02-09T02:50:41.022Z,43.30
2019-02-09T02:51:41.149Z,44.10
2019-02-09T02:52:40.957Z,41.70
2019-02-09T02:53:41.072Z,44.00
2019-02-09T02:54:41.082Z,44.10
2019-02-09T02:55:40.995Z,43.80
2019-02-09T02:56:41.101Z,44.40
2019-02-09T02:57:41.017Z,44.70
2019-02-09T02:58:41.022Z,43.00
2019-02-09T02:59:41.168Z,41.80
2019-02-09T03:00:41.051Z,39.00
2019-02-09T03:01:41.174Z,35.90
2019-02-09T03:02:41.084Z,34.90
2019-02-09T03:03:41.089Z,29.50
2019-02-09T03:04:41.107Z,29.80
2019-02-09T03:05:41.250Z,31.30
2019-02-09T03:06:41.362Z,34.00
2019-02-09T03:07:41.281Z,36.70
2019-02-09T03:08:41.174Z,37.30
2019-02-09T03:09:41.308Z,36.30
2019-02-09T03:10:41.200Z,36.20
2019-02-09T03:11:41.385Z,36.00
2019-02-09T03:12:41.221Z,34.80
2019-02-09T03:13:41.251Z,34.90
2019-02-09T03:14:41.382Z,33.50
2019-02-09T03:15:41.414Z,31.90
2019-02-09T03:16:41.409Z,32.40
2019-02-09T03:17:41.427Z,34.10
2019-02-09T03:18:41.335Z,33.80
2019-02-09T03:19:41.467Z,32.70
2019-02-09T03:20:41.395Z,31.20
2019-02-09T03:21:41.646Z,29.50
2019-02-09T03:22:41.509Z,26.80
2019-02-09T03:23:41.517Z,24.60
2019-02-09T03:24:41.405Z,24.90
2019-02-09T03:25:41.413Z,23.60
2019-02-09T03:26:41.665Z,21.40
2019-02-09T03:27:41.479Z,20.90
2019-02-09T03:28:41.492Z,21.20
2019-02-09T03:29:41.500Z,20.40
2019-02-09T03:30:47.721Z,20.80
2019-02-09T03:31:41.629Z,19.50
2019-02-09T03:32:41.545Z,19.70
2019-02-09T03:33:41.558Z,21.40
2019-02-09T03:34:41.687Z,21.80
2019-02-09T03:35:41.581Z,21.70
2019-02-09T03:36:41.753Z,21.20
2019-02-09T03:37:41.723Z,21.10
2019-02-09T03:38:41.738Z,18.30
2019-02-09T03:39:41.657Z,18.70
2019-02-09T03:40:41.768Z,18.90
2019-02-09T03:41:41.795Z,19.10
2019-02-09T03:42:41.692Z,18.20
2019-02-09T03:43:41.738Z,18.00
2019-02-09T03:44:41.790Z,17.80
2019-02-09T03:45:41.738Z,17.90
2019-02-09T03:46:41.871Z,18.30
2019-02-09T03:47:41.871Z,18.60
2019-02-09T03:48:41.887Z,18.50
2019-02-09T03:49:41.903Z,19.20
2019-02-09T03:50:41.918Z,19.40
2019-02-09T03:51:42.009Z,21.10
2019-02-09T03:52:41.852Z,20.50
2019-02-09T03:53:41.902Z,20.20
2019-02-09T03:54:41.872Z,19.60
2019-02-09T03:55:41.987Z,21.50
2019-02-09T03:56:42.039Z,21.10
2019-02-09T03:57:42.019Z,22.20
2019-02-09T03:58:41.933Z,21.80
2019-02-09T03:59:42.057Z,22.70
2019-02-09T04:00:41.998Z,23.30
2019-02-09T04:01:41.978Z,22.10
2019-02-09T04:02:42.252Z,22.00
2019-02-09T04:03:41.994Z,23.40
2019-02-09T04:04:42.020Z,23.00
2019-02-09T04:05:42.135Z,24.80
2019-02-09T04:06:42.051Z,24.20
2019-02-09T04:07:42.265Z,24.00
2019-02-09T04:08:42.070Z,23.40
2019-02-09T04:09:42.205Z,24.50
2019-02-09T04:10:42.097Z,24.40
2019-02-09T04:11:42.228Z,25.10
2019-02-09T04:12:42.342Z,24.40
2019-02-09T04:13:42.141Z,25.00
2019-02-09T04:14:42.269Z,24.90
2019-02-09T04:15:42.282Z,25.50
2019-02-09T04:16:42.300Z,25.80
2019-02-09T04:17:42.310Z,27.40
2019-02-09T04:18:42.195Z,26.90
2019-02-09T04:19:42.340Z,26.70
2019-02-09T04:20:42.360Z,26.00
2019-02-09T04:21:42.376Z,26.90
2019-02-09T04:22:42.443Z,27.80
2019-02-09T04:23:42.400Z,28.60
2019-02-09T04:24:42.415Z,26.60
2019-02-09T04:25:42.434Z,27.00
2019-02-09T04:26:42.445Z,27.90
2019-02-09T04:27:42.410Z,28.50
2019-02-09T04:28:42.630Z,28.20
2019-02-09T04:29:42.394Z,29.60
2019-02-09T04:30:42.506Z,28.80
2019-02-09T04:31:42.413Z,29.40
2019-02-09T04:32:42.473Z,30.20
2019-02-09T04:33:42.556Z,28.90
2019-02-09T04:34:42.457Z,28.30
2019-02-09T04:35:42.470Z,28.90
2019-02-09T04:36:42.590Z,27.70
2019-02-09T04:37:42.491Z,27.90
2019-02-09T04:38:42.732Z,29.80
2019-02-09T04:39:42.523Z,29.70
2019-02-09T04:40:42.650Z,29.70
2019-02-09T04:41:42.545Z,31.10
2019-02-09T04:42:42.690Z,30.30
2019-02-09T04:43:42.699Z,30.50
2019-02-09T04:44:42.717Z,29.90
2019-02-09T04:45:42.653Z,30.20
2019-02-09T04:46:42.661Z,30.90
2019-02-09T04:47:42.646Z,30.70
2019-02-09T04:48:42.756Z,28.30
2019-02-09T04:49:42.785Z,28.90
2019-02-09T04:50:42.798Z,28.50
2019-02-09T04:51:42.690Z,28.50
2019-02-09T04:52:42.725Z,29.10
2019-02-09T04:53:42.893Z,27.60
2019-02-09T04:54:42.736Z,27.90
2019-02-09T04:55:42.766Z,28.50
2019-02-09T04:56:42.770Z,28.10
2019-02-09T04:57:42.908Z,28.00
2019-02-09T04:58:42.863Z,27.10
2019-02-09T04:59:42.808Z,28.70
2019-02-09T05:00:42.949Z,29.00
2019-02-09T05:01:42.960Z,28.10
2019-02-09T05:02:42.972Z,28.50
2019-02-09T05:03:42.962Z,29.30
2019-02-09T05:04:42.892Z,30.30
2019-02-09T05:05:42.913Z,28.60
2019-02-09T05:06:42.920Z,28.50
2019-02-09T05:07:42.944Z,28.30
2019-02-09T05:08:43.126Z,28.10
2019-02-09T05:09:42.963Z,28.00
2019-02-09T05:10:42.978Z,28.30
2019-02-09T05:11:43.107Z,29.00
2019-02-09T05:12:43.117Z,28.20
2019-02-09T05:13:43.119Z,27.00
2019-02-09T05:14:43.151Z,27.60
2019-02-09T05:15:43.073Z,23.90
2019-02-09T05:16:43.186Z,22.50
2019-02-09T05:17:43.187Z,22.90
2019-02-09T05:18:43.161Z,22.30
2019-02-09T05:19:43.128Z,21.40
2019-02-09T05:20:43.102Z,18.70
2019-02-09T05:21:43.137Z,18.40
2019-02-09T05:22:43.156Z,17.90
2019-02-09T05:23:43.266Z,18.80
2019-02-09T05:24:43.171Z,19.90
2019-02-09T05:25:43.306Z,19.00
2019-02-09T05:26:43.220Z,19.50
2019-02-09T05:27:43.234Z,20.10
2019-02-09T05:28:43.366Z,18.20
2019-02-09T05:29:43.375Z,18.00
2019-02-09T05:30:43.377Z,17.40
2019-02-09T05:31:43.292Z,17.40
2019-02-09T05:32:43.297Z,17.50
2019-02-09T05:33:43.461Z,17.00
2019-02-09T05:34:43.322Z,17.60
2019-02-09T05:35:43.338Z,17.20
2019-02-09T05:36:43.343Z,16.90
2019-02-09T05:37:43.372Z,17.20
2019-02-09T05:38:43.605Z,17.90
2019-02-09T05:39:43.520Z,18.10
2019-02-09T05:40:43.417Z,18.20
2019-02-09T05:41:43.414Z,17.80
2019-02-09T05:42:43.453Z,17.70
2019-02-09T05:43:43.614Z,18.40
2019-02-09T05:44:43.476Z,18.80
2019-02-09T05:45:43.597Z,19.40
2019-02-09T05:46:43.509Z,18.10
2019-02-09T05:47:43.518Z,18.20
2019-02-09T05:48:43.718Z,18.80
2019-02-09T05:49:43.652Z,19.30
2019-02-09T05:50:43.561Z,19.80
2019-02-09T05:51:43.687Z,18.70
2019-02-09T05:52:43.576Z,18.80
2019-02-09T05:53:43.824Z,19.70
2019-02-09T05:54:43.622Z,19.70
2019-02-09T05:55:43.637Z,19.70
2019-02-09T05:56:43.630Z,19.70
2019-02-09T05:57:43.765Z,18.80
2019-02-09T05:58:43.883Z,18.60
2019-02-09T05:59:43.807Z,19.30
2019-02-09T06:00:43.717Z,19.60
2019-02-09T06:01:43.835Z,19.10
2019-02-09T06:02:43.731Z,20.90
2019-02-09T06:03:43.842Z,18.90
2019-02-09T06:04:43.873Z,20.60
2019-02-09T06:05:43.887Z,20.10
2019-02-09T06:06:43.780Z,21.10
2019-02-09T06:07:43.811Z,20.90
2019-02-09T06:08:43.915Z,20.40
2019-02-09T06:09:43.951Z,20.10
2019-02-09T06:10:43.827Z,19.80
2019-02-09T06:11:43.971Z,21.40
2019-02-09T06:12:43.863Z,22.60
2019-02-09T06:13:44.094Z,21.00
2019-02-09T06:14:43.915Z,20.60
2019-02-09T06:15:43.908Z,22.10
2019-02-09T06:16:44.038Z,22.90
2019-02-09T06:17:43.940Z,21.00
2019-02-09T06:18:44.168Z,19.80
2019-02-09T06:19:44.089Z,19.50
2019-02-09T06:20:44.106Z,20.40
2019-02-09T06:21:44.019Z,19.00
2019-02-09T06:22:44.131Z,17.80
2019-02-09T06:23:44.104Z,18.00
2019-02-09T06:24:44.049Z,19.10
2019-02-09T06:25:44.037Z,19.30
2019-02-09T06:26:44.052Z,19.90
2019-02-09T06:27:44.082Z,21.70
2019-02-09T06:28:44.211Z,21.30
2019-02-09T06:29:44.224Z,21.40
2019-02-09T06:30:44.125Z,20.50
2019-02-09T06:31:44.129Z,20.50
2019-02-09T06:32:44.173Z,21.00
2019-02-09T06:33:44.281Z,20.60
2019-02-09T06:34:44.298Z,23.00
2019-02-09T06:35:44.250Z,24.10
2019-02-09T06:36:44.323Z,25.90
2019-02-09T06:37:44.223Z,23.20
2019-02-09T06:38:44.242Z,23.60
2019-02-09T06:39:44.265Z,24.60
2019-02-09T06:40:44.315Z,23.60
2019-02-09T06:41:44.276Z,23.80
2019-02-09T06:42:44.410Z,23.10
2019-02-09T06:43:44.419Z,21.70
2019-02-09T06:44:44.347Z,22.20
2019-02-09T06:45:44.548Z,23.00
2019-02-09T06:46:44.361Z,23.70
2019-02-09T06:47:44.361Z,24.10
2019-02-09T06:48:44.368Z,23.10
2019-02-09T06:49:44.390Z,23.20
2019-02-09T06:50:44.496Z,22.00
2019-02-09T06:51:44.535Z,23.10
2019-02-09T06:52:44.549Z,23.20
2019-02-09T06:53:44.565Z,21.40
2019-02-09T06:54:44.575Z,21.80
2019-02-09T06:55:44.602Z,21.60
2019-02-09T06:56:44.510Z,22.20
2019-02-09T06:57:44.510Z,22.40
2019-02-09T06:58:44.519Z,22.70
2019-02-09T06:59:44.533Z,23.20
2019-02-09T07:00:44.705Z,22.30
2019-02-09T07:01:48.857Z,21.30
2019-02-09T07:02:44.698Z,21.20
2019-02-09T07:03:44.600Z,21.60
2019-02-09T07:04:44.719Z,22.70
2019-02-09T07:05:44.658Z,22.90
2019-02-09T07:06:44.638Z,23.90
2019-02-09T07:07:44.692Z,22.90
2019-02-09T07:08:44.676Z,22.10
2019-02-09T07:09:44.793Z,23.00
2019-02-09T07:10:44.746Z,23.80
2019-02-09T07:11:44.679Z,23.40
2019-02-09T07:12:44.830Z,24.50
2019-02-09T07:13:44.722Z,25.40
2019-02-09T07:14:44.856Z,24.00
2019-02-09T07:15:44.924Z,25.70
2019-02-09T07:16:44.887Z,24.80
2019-02-09T07:17:44.899Z,25.10
2019-02-09T07:18:44.916Z,25.40
2019-02-09T07:19:44.805Z,26.70
2019-02-09T07:20:44.938Z,26.20
2019-02-09T07:21:44.844Z,26.10
2019-02-09T07:22:44.845Z,26.70
2019-02-09T07:23:44.981Z,25.50
2019-02-09T07:24:44.920Z,25.60
2019-02-09T07:25:45.061Z,26.30
2019-02-09T07:26:44.949Z,26.00
2019-02-09T07:27:44.929Z,25.90
2019-02-09T07:28:44.940Z,25.80
2019-02-09T07:29:44.955Z,24.30
2019-02-09T07:30:45.138Z,25.10
2019-02-09T07:31:45.140Z,24.60
2019-02-09T07:32:44.988Z,24.00
2019-02-09T07:33:45.130Z,23.70
2019-02-09T07:34:45.027Z,23.30
2019-02-09T07:35:45.153Z,24.40
2019-02-09T07:36:45.111Z,25.20
2019-02-09T07:37:45.073Z,23.90
2019-02-09T07:38:45.077Z,24.70
2019-02-09T07:39:45.215Z,26.10
2019-02-09T07:40:45.150Z,26.70
2019-02-09T07:41:45.109Z,25.50
2019-02-09T07:42:45.154Z,26.50
2019-02-09T07:43:45.158Z,25.50
2019-02-09T07:44:45.223Z,25.70
2019-02-09T07:45:45.290Z,27.00
2019-02-09T07:46:45.209Z,27.50
2019-02-09T07:47:45.205Z,28.00
2019-02-09T07:48:45.261Z,28.00
2019-02-09T07:49:45.262Z,28.90
2019-02-09T07:50:45.359Z,28.90
2019-02-09T07:51:45.258Z,28.70
2019-02-09T07:52:45.267Z,29.90
2019-02-09T07:53:45.409Z,31.00
2019-02-09T07:54:45.362Z,29.40
2019-02-09T07:55:45.325Z,29.30
2019-02-09T07:56:45.445Z,29.30
2019-02-09T07:57:45.327Z,29.30
2019-02-09T07:58:45.357Z,30.90
2019-02-09T07:59:45.435Z,28.20
2019-02-09T08:00:45.392Z,30.00
2019-02-09T08:01:45.411Z,29.20
2019-02-09T08:02:45.580Z,30.90
2019-02-09T08:03:45.421Z,30.60
2019-02-09T08:04:45.446Z,31.90
2019-02-09T08:05:45.457Z,30.70
2019-02-09T08:06:45.574Z,30.90
2019-02-09T08:07:45.594Z,30.80
2019-02-09T08:08:45.492Z,31.90
2019-02-09T08:09:45.622Z,30.10
2019-02-09T08:10:45.509Z,31.20
2019-02-09T08:11:45.579Z,29.70
2019-02-09T08:12:45.550Z,28.80
2019-02-09T08:13:45.674Z,30.60
2019-02-09T08:14:45.583Z,29.40
2019-02-09T08:15:45.604Z,32.30
2019-02-09T08:16:45.690Z,32.90
2019-02-09T08:17:45.617Z,30.30
2019-02-09T08:18:45.747Z,30.20
2019-02-09T08:19:45.645Z,29.30
2019-02-09T08:20:45.774Z,31.70
2019-02-09T08:21:45.889Z,31.10
2019-02-09T08:22:45.683Z,29.70
2019-02-09T08:23:45.697Z,31.00
2019-02-09T08:24:45.840Z,31.60
2019-02-09T08:25:45.735Z,30.90
2019-02-09T08:26:45.897Z,30.80
2019-02-09T08:27:45.758Z,31.00
2019-02-09T08:28:45.783Z,32.00
2019-02-09T08:29:45.768Z,31.80
2019-02-09T08:30:45.913Z,30.40
2019-02-09T08:31:45.911Z,31.10
2019-02-09T08:32:45.827Z,31.70
2019-02-09T08:33:45.847Z,31.90
2019-02-09T08:34:45.847Z,31.90
2019-02-09T08:35:45.885Z,31.10
2019-02-09T08:36:46.042Z,32.60
2019-02-09T08:37:45.882Z,32.70
2019-02-09T08:38:45.918Z,33.50
2019-02-09T08:39:46.045Z,33.00
2019-02-09T08:40:46.064Z,32.90
2019-02-09T08:41:46.112Z,32.90
2019-02-09T08:42:45.965Z,32.50
2019-02-09T08:43:46.091Z,32.50
2019-02-09T08:44:46.003Z,32.00
2019-02-09T08:45:46.007Z,29.40
2019-02-09T08:46:46.094Z,30.60
2019-02-09T08:47:46.151Z,32.30
2019-02-09T08:48:46.172Z,33.00
2019-02-09T08:49:46.060Z,33.50
2019-02-09T08:50:46.068Z,33.30
2019-02-09T08:51:46.249Z,33.90
2019-02-09T08:52:46.102Z,34.00
2019-02-09T08:53:47.116Z,31.90
2019-02-09T08:54:46.153Z,33.60
2019-02-09T08:55:46.141Z,32.50
2019-02-09T08:56:46.379Z,32.60
2019-02-09T08:57:46.286Z,31.60
2019-02-09T08:58:46.200Z,32.40
2019-02-09T08:59:46.207Z,32.10
2019-02-09T09:00:46.224Z,32.80
2019-02-09T09:01:46.370Z,33.30
2019-02-09T09:02:46.287Z,34.50
2019-02-09T09:03:46.250Z,35.10
2019-02-09T09:04:46.258Z,35.30
2019-02-09T09:05:46.387Z,35.20
2019-02-09T09:06:46.344Z,34.20
2019-02-09T09:07:46.432Z,34.60
2019-02-09T09:08:46.438Z,34.30
2019-02-09T09:09:46.463Z,32.70
2019-02-09T09:10:46.467Z,33.30
2019-02-09T09:11:46.580Z,33.30
2019-02-09T09:12:46.422Z,34.10
2019-02-09T09:13:46.508Z,35.20
2019-02-09T09:14:46.413Z,33.90
2019-02-09T09:15:46.538Z,37.10
2019-02-09T09:16:46.708Z,37.80
2019-02-09T09:17:46.568Z,38.40
2019-02-09T09:18:46.577Z,40.20
2019-02-09T09:19:46.602Z,39.80
2019-02-09T09:20:46.494Z,38.90
2019-02-09T09:21:46.649Z,42.20
2019-02-09T09:22:46.520Z,40.30
2019-02-09T09:23:46.656Z,42.30
2019-02-09T09:24:46.556Z,41.80
2019-02-09T09:25:46.567Z,42.00
2019-02-09T09:26:46.684Z,42.80
2019-02-09T09:27:46.594Z,39.60
2019-02-09T09:28:46.618Z,41.80
2019-02-09T09:29:46.734Z,42.20
2019-02-09T09:30:46.616Z,41.70
2019-02-09T09:31:46.846Z,43.40
2019-02-09T09:32:46.667Z,41.10
2019-02-09T09:33:46.691Z,41.90
2019-02-09T09:34:46.807Z,41.40
2019-02-09T09:35:46.709Z,41.10
2019-02-09T09:36:46.940Z,41.70
2019-02-09T09:37:46.729Z,38.90
2019-02-09T09:38:46.761Z,40.60
2019-02-09T09:39:46.818Z,41.30
2019-02-09T09:40:46.790Z,39.60
2019-02-09T09:41:46.913Z,40.10
2019-02-09T09:42:46.928Z,39.10
2019-02-09T09:43:46.826Z,41.70
2019-02-09T09:44:46.958Z,40.30
2019-02-09T09:45:46.977Z,40.60
2019-02-09T09:46:46.987Z,37.30
2019-02-09T09:47:46.891Z,38.10
2019-02-09T09:48:46.893Z,37.30
2019-02-09T09:49:47.029Z,36.90
2019-02-09T09:50:47.040Z,35.80
2019-02-09T09:51:47.029Z,34.80
2019-02-09T09:52:47.073Z,33.80
2019-02-09T09:53:46.990Z,35.00
2019-02-09T09:54:47.096Z,34.40
2019-02-09T09:55:47.042Z,32.20
2019-02-09T09:56:47.027Z,34.30
2019-02-09T09:57:47.050Z,33.50
2019-02-09T09:58:47.095Z,35.30
2019-02-09T09:59:47.236Z,34.70
2019-02-09T10:00:47.199Z,33.50
2019-02-09T10:01:47.080Z,35.00
2019-02-09T10:02:47.101Z,34.30
2019-02-09T10:03:47.236Z,32.30
2019-02-09T10:04:47.148Z,33.10
2019-02-09T10:05:47.218Z,31.10
2019-02-09T10:06:47.299Z,32.50
2019-02-09T10:07:47.308Z,33.30
2019-02-09T10:08:47.315Z,35.50
2019-02-09T10:09:47.336Z,33.70
2019-02-09T10:10:47.248Z,32.60
2019-02-09T10:11:47.232Z,32.10
2019-02-09T10:12:47.387Z,30.80
2019-02-09T10:13:47.510Z,30.20
2019-02-09T10:14:47.416Z,29.50
2019-02-09T10:15:47.321Z,30.90
2019-02-09T10:16:48.127Z,28.90
2019-02-09T10:17:47.345Z,28.50
2019-02-09T10:18:47.430Z,29.50
2019-02-09T10:19:47.396Z,29.90
2019-02-09T10:20:47.517Z,29.60
2019-02-09T10:21:47.429Z,28.80
2019-02-09T10:22:47.439Z,26.50
2019-02-09T10:23:47.572Z,26.50
2019-02-09T10:24:47.465Z,24.20
2019-02-09T10:25:47.598Z,24.30
2019-02-09T10:26:47.622Z,23.00
2019-02-09T10:27:47.538Z,22.60
2019-02-09T10:28:47.633Z,22.40
2019-02-09T10:29:47.550Z,21.90
2019-02-09T10:30:47.572Z,22.10
2019-02-09T10:31:47.702Z,21.90
2019-02-09T10:32:47.623Z,21.50
2019-02-09T10:33:47.715Z,21.50
2019-02-09T10:34:47.661Z,21.60
2019-02-09T10:35:47.663Z,21.60
2019-02-09T10:36:47.807Z,22.10
2019-02-09T10:37:47.696Z,21.80
2019-02-09T10:38:47.782Z,20.80
2019-02-09T10:39:47.863Z,21.60
2019-02-09T10:40:47.876Z,20.20
2019-02-09T10:41:47.912Z,20.00
2019-02-09T10:42:47.921Z,20.00
2019-02-09T10:43:47.923Z,20.40
2019-02-09T10:44:47.838Z,19.70
2019-02-09T10:45:47.856Z,19.40
2019-02-09T10:46:47.890Z,19.80
2019-02-09T10:47:47.948Z,21.70
2019-02-09T10:48:48.086Z,20.80
2019-02-09T10:49:48.061Z,21.30
2019-02-09T10:50:48.085Z,20.30
2019-02-09T10:51:48.003Z,18.70
2019-02-09T10:52:48.009Z,19.70
2019-02-09T10:53:48.191Z,19.60
2019-02-09T10:54:48.168Z,20.20
2019-02-09T10:55:48.194Z,20.40
2019-02-09T10:56:48.209Z,20.10
2019-02-09T10:57:48.228Z,19.30
2019-02-09T10:58:48.286Z,19.00
2019-02-09T10:59:48.270Z,18.30
2019-02-09T11:00:48.178Z,20.20
2019-02-09T11:01:48.215Z,20.90
2019-02-09T11:02:52.208Z,20.60
2019-02-09T11:03:48.356Z,20.00
2019-02-09T11:04:48.390Z,19.80
2019-02-09T11:05:48.271Z,20.30
2019-02-09T11:06:48.360Z,20.20
2019-02-09T11:07:48.327Z,20.80
2019-02-09T11:08:48.584Z,21.70
2019-02-09T11:09:48.358Z,20.90
2019-02-09T11:10:48.416Z,20.20
2019-02-09T11:11:48.424Z,19.80
2019-02-09T11:12:48.439Z,20.10
2019-02-09T11:13:48.582Z,19.90
2019-02-09T11:14:48.486Z,18.90
2019-02-09T11:15:48.559Z,20.70
2019-02-09T11:16:48.557Z,21.40
2019-02-09T11:17:48.563Z,22.50
2019-02-09T11:18:48.798Z,23.60
2019-02-09T11:19:48.610Z,24.80
2019-02-09T11:20:48.751Z,21.80
2019-02-09T11:21:49.835Z,23.50
2019-02-09T11:22:48.689Z,22.90
2019-02-09T11:23:48.751Z,21.90
2019-02-09T11:24:48.728Z,22.40
2019-02-09T11:25:48.749Z,21.80
2019-02-09T11:26:48.776Z,22.10
2019-02-09T11:27:48.810Z,22.60
2019-02-09T11:28:48.992Z,18.60
2019-02-09T11:29:48.822Z,19.70
2019-02-09T11:30:48.985Z,18.40
2019-02-09T11:31:49.007Z,19.90
2019-02-09T11:32:48.915Z,21.40
2019-02-09T11:33:49.202Z,20.80
2019-02-09T11:34:49.085Z,25.80
2019-02-09T11:35:48.982Z,25.30
2019-02-09T11:36:49.017Z,28.00
2019-02-09T11:37:49.050Z,26.70
2019-02-09T11:38:49.165Z,26.00
2019-02-09T11:39:49.092Z,25.20
2019-02-09T11:40:49.228Z,24.60
2019-02-09T11:41:49.141Z,23.50
2019-02-09T11:42:49.147Z,23.00
2019-02-09T11:43:49.306Z,20.30
2019-02-09T11:44:49.378Z,21.70
2019-02-09T11:45:49.354Z,20.50
2019-02-09T11:46:49.290Z,22.30
2019-02-09T11:47:49.287Z,20.60
2019-02-09T11:48:49.329Z,18.80
2019-02-09T11:49:49.472Z,19.30
2019-02-09T11:50:49.489Z,19.40
2019-02-09T11:51:50.215Z,18.70
2019-02-09T11:52:49.420Z,18.50
2019-02-09T11:53:49.563Z,20.90
2019-02-09T11:54:49.486Z,17.90
2019-02-09T11:55:49.667Z,18.10
2019-02-09T11:56:49.544Z,18.00
2019-02-09T11:57:49.558Z,17.50
2019-02-09T11:58:49.594Z,18.70
2019-02-09T11:59:49.731Z,19.00
2019-02-09T12:00:49.851Z,17.90
2019-02-09T12:01:49.777Z,19.50
2019-02-09T12:02:49.684Z,18.90
2019-02-09T12:03:49.714Z,17.90
2019-02-09T12:04:49.759Z,17.00
2019-02-09T12:05:49.939Z,17.00
2019-02-09T12:06:49.919Z,14.60
2019-02-09T12:07:49.852Z,14.70
2019-02-09T12:08:49.977Z,14.40
2019-02-09T12:09:49.931Z,14.00
2019-02-09T12:10:50.027Z,13.70
2019-02-09T12:11:49.974Z,13.20
2019-02-09T12:12:49.995Z,14.40
2019-02-09T12:13:55.232Z,15.50
2019-02-09T12:14:50.146Z,15.10
2019-02-09T12:15:50.113Z,14.20
2019-02-09T12:16:50.200Z,13.50
2019-02-09T12:17:50.112Z,13.70
2019-02-09T12:18:50.158Z,12.70
2019-02-09T12:19:50.183Z,14.10
2019-02-09T12:20:50.307Z,13.60
2019-02-09T12:21:50.269Z,13.00
2019-02-09T12:22:50.309Z,11.60
2019-02-09T12:23:50.269Z,12.10
2019-02-09T12:24:50.422Z,13.70
2019-02-09T12:25:50.604Z,13.50
2019-02-09T12:26:50.480Z,13.60
2019-02-09T12:27:50.386Z,13.80
2019-02-09T12:28:50.441Z,14.00
2019-02-09T12:29:50.451Z,13.80
2019-02-09T12:30:50.596Z,12.80
2019-02-09T12:31:50.626Z,12.10
2019-02-09T12:32:50.546Z,13.70
2019-02-09T12:33:50.681Z,13.00
2019-02-09T12:34:50.627Z,13.40
2019-02-09T12:35:50.757Z,13.40
2019-02-09T12:36:50.772Z,13.70
2019-02-09T12:37:50.680Z,12.80
2019-02-09T12:38:50.836Z,13.70
2019-02-09T12:39:50.731Z,15.70
2019-02-09T12:40:50.882Z,13.90
2019-02-09T12:41:50.914Z,13.70
2019-02-09T12:42:50.825Z,12.70
2019-02-09T12:43:50.974Z,11.70
2019-02-09T12:44:51.005Z,10.10
2019-02-09T12:45:51.012Z,10.70
2019-02-09T12:46:51.060Z,11.00
2019-02-09T12:47:51.103Z,9.70
2019-02-09T12:48:51.065Z,10.70
2019-02-09T12:49:51.039Z,11.30
2019-02-09T12:50:51.273Z,12.80
2019-02-09T12:51:51.114Z,12.90
2019-02-09T12:52:51.138Z,12.50
2019-02-09T12:53:51.216Z,13.20